createdAt,value
2023-04-16T00:00:46.291Z,100.00
2023-04-16T00:02:09.066Z,100.00
2023-04-16T00:03:31.263Z,100.00
2023-04-16T00:04:55.615Z,100.00
2023-04-16T00:06:18.324Z,100.00
2023-04-16T00:07:41.982Z,100.00
2023-04-16T00:09:04.969Z,100.00
2023-04-16T00:10:27.410Z,100.00
2023-04-16T00:11:50.408Z,100.00
2023-04-16T00:13:13.967Z,100.00
2023-04-16T00:14:36.131Z,100.00
2023-04-16T00:15:59.055Z,100.00
2023-04-16T00:17:21.098Z,100.00
2023-04-16T00:18:43.800Z,100.00
2023-04-16T00:20:09.473Z,100.00
2023-04-16T00:21:32.214Z,100.00
2023-04-16T00:22:53.854Z,100.00
2023-04-16T00:24:16.567Z,100.00
2023-04-16T00:25:39.725Z,100.00
2023-04-16T00:27:03.865Z,100.00
2023-04-16T00:28:26.096Z,100.00
2023-04-16T00:29:49.063Z,100.00
2023-04-16T00:31:11.242Z,100.00
2023-04-16T00:32:34.992Z,100.00
2023-04-16T00:33:57.098Z,100.00
2023-04-16T00:35:20.319Z,100.00
2023-04-16T00:36:43.151Z,99.92
2023-04-16T00:38:06.768Z,100.00
2023-04-16T00:39:28.306Z,99.89
2023-04-16T00:40:51.387Z,99.09
2023-04-16T00:42:15.641Z,99.26
2023-04-16T00:43:38.991Z,99.52
2023-04-16T00:45:01.633Z,99.73
2023-04-16T00:46:24.941Z,99.76
2023-04-16T00:47:47.941Z,99.63
2023-04-16T00:49:20.916Z,99.49
2023-04-16T00:50:43.936Z,99.54
2023-04-16T00:52:07.063Z,99.18
2023-04-16T00:53:29.293Z,99.64
2023-04-16T00:54:52.108Z,99.72
2023-04-16T00:56:17.692Z,99.74
2023-04-16T00:57:42.012Z,100.00
2023-04-16T00:59:07.517Z,99.57
2023-04-16T01:00:30.793Z,99.35
2023-04-16T01:01:54.511Z,99.42
2023-04-16T01:03:17.856Z,99.31
2023-04-16T01:04:40.474Z,99.26
2023-04-16T01:06:03.820Z,99.32
2023-04-16T01:07:26.597Z,99.25
2023-04-16T01:08:49.738Z,99.07
2023-04-16T01:10:11.585Z,99.05
2023-04-16T01:11:34.781Z,98.84
2023-04-16T01:12:58.820Z,98.77
2023-04-16T01:14:22.000Z,98.85
2023-04-16T01:15:44.589Z,98.76
2023-04-16T01:17:07.077Z,98.65
2023-04-16T01:18:29.402Z,98.77
2023-04-16T01:19:51.854Z,99.13
2023-04-16T01:21:15.245Z,99.96
2023-04-16T01:22:38.615Z,100.00
2023-04-16T01:24:03.615Z,100.00
2023-04-16T01:25:25.957Z,100.00
2023-04-16T01:26:49.494Z,100.00
2023-04-16T01:28:12.466Z,100.00
2023-04-16T01:29:35.878Z,100.00
2023-04-16T01:30:57.730Z,100.00
2023-04-16T01:32:21.109Z,100.00
2023-04-16T01:33:42.912Z,100.00
2023-04-16T01:35:06.170Z,100.00
2023-04-16T01:36:32.021Z,100.00
2023-04-16T01:37:53.940Z,100.00
2023-04-16T01:39:19.368Z,100.00
2023-04-16T01:40:41.208Z,99.83
2023-04-16T01:42:04.004Z,99.75
2023-04-16T01:43:26.094Z,99.81
2023-04-16T01:44:49.217Z,99.51
2023-04-16T01:46:21.322Z,99.06
2023-04-16T01:47:44.810Z,99.03
2023-04-16T01:49:07.742Z,98.73
2023-04-16T01:50:29.970Z,98.89
2023-04-16T01:51:53.750Z,98.89
2023-04-16T01:53:15.952Z,99.41
2023-04-16T01:54:38.927Z,99.19
2023-04-16T01:56:01.092Z,99.20
2023-04-16T01:57:24.074Z,99.20
2023-04-16T01:58:47.163Z,99.46
2023-04-16T02:00:11.758Z,99.52
2023-04-16T02:01:34.573Z,100.00
2023-04-16T02:02:56.584Z,99.97
2023-04-16T02:04:19.447Z,99.60
2023-04-16T02:05:42.158Z,99.51
2023-04-16T02:07:07.383Z,99.28
2023-04-16T02:08:30.389Z,98.96
2023-04-16T02:09:52.742Z,98.52
2023-04-16T02:11:15.878Z,98.47
2023-04-16T02:12:38.119Z,98.03
2023-04-16T02:14:00.904Z,98.73
2023-04-16T02:15:23.920Z,100.00
2023-04-16T02:16:47.546Z,100.00
2023-04-16T02:18:09.231Z,100.00
2023-04-16T02:19:32.058Z,100.00
2023-04-16T02:20:54.354Z,100.00
2023-04-16T02:22:18.833Z,100.00
2023-04-16T02:23:42.161Z,100.00
2023-04-16T02:25:05.001Z,100.00
2023-04-16T02:26:29.118Z,100.00
2023-04-16T02:27:51.189Z,100.00
2023-04-16T02:29:14.854Z,100.00
2023-04-16T02:30:37.171Z,100.00
2023-04-16T02:32:00.560Z,100.00
2023-04-16T02:33:26.160Z,100.00
2023-04-16T02:34:48.781Z,100.00
2023-04-16T02:36:11.245Z,100.00
2023-04-16T02:37:36.687Z,100.00
2023-04-16T02:38:59.718Z,100.00
2023-04-16T02:40:22.283Z,100.00
2023-04-16T02:41:45.269Z,100.00
2023-04-16T02:43:09.244Z,100.00
2023-04-16T02:44:31.804Z,100.00
2023-04-16T02:45:53.596Z,100.00
2023-04-16T02:47:17.419Z,100.00
2023-04-16T02:48:41.061Z,100.00
2023-04-16T02:50:03.786Z,100.00
2023-04-16T02:51:27.740Z,100.00
2023-04-16T02:52:52.342Z,100.00
2023-04-16T02:54:15.710Z,100.00
2023-04-16T02:55:38.828Z,100.00
2023-04-16T02:57:02.336Z,100.00
2023-04-16T02:58:29.402Z,100.00
2023-04-16T02:59:51.949Z,100.00
2023-04-16T03:01:15.142Z,100.00
2023-04-16T03:02:38.048Z,100.00
2023-04-16T03:04:00.048Z,100.00
2023-04-16T03:05:23.018Z,100.00
2023-04-16T03:06:46.284Z,100.00
2023-04-16T03:08:14.399Z,100.00
2023-04-16T03:09:35.520Z,100.00
2023-04-16T03:10:55.701Z,100.00
2023-04-16T03:12:13.868Z,100.00
2023-04-16T03:13:34.236Z,99.84
2023-04-16T03:14:55.498Z,99.74
2023-04-16T03:16:15.901Z,100.00
2023-04-16T03:17:37.004Z,100.00
2023-04-16T03:18:57.193Z,100.00
2023-04-16T03:20:19.149Z,100.00
2023-04-16T03:21:39.269Z,100.00
2023-04-16T03:23:00.668Z,100.00
2023-04-16T03:24:23.238Z,100.00
2023-04-16T03:25:46.714Z,100.00
2023-04-16T03:27:07.072Z,99.97
2023-04-16T03:28:31.322Z,99.70
2023-04-16T03:29:51.218Z,100.00
2023-04-16T03:31:12.415Z,100.00
2023-04-16T03:32:33.765Z,100.00
2023-04-16T03:33:54.153Z,100.00
2023-04-16T03:35:15.855Z,99.81
2023-04-16T03:36:36.697Z,100.00
2023-04-16T03:37:57.543Z,100.00
2023-04-16T03:39:18.551Z,100.00
2023-04-16T03:40:41.383Z,100.00
2023-04-16T03:42:03.467Z,100.00
2023-04-16T03:43:23.733Z,100.00
2023-04-16T03:44:44.952Z,100.00
2023-04-16T03:46:06.394Z,100.00
2023-04-16T03:47:27.651Z,100.00
2023-04-16T03:48:48.852Z,100.00
2023-04-16T03:50:09.847Z,100.00
2023-04-16T03:51:30.912Z,100.00
2023-04-16T03:52:51.354Z,100.00
2023-04-16T03:54:12.708Z,100.00
2023-04-16T03:55:33.115Z,100.00
2023-04-16T03:56:57.051Z,99.57
2023-04-16T03:58:17.023Z,99.03
2023-04-16T03:59:38.487Z,98.64
2023-04-16T04:00:58.857Z,97.75
2023-04-16T04:02:17.704Z,97.85
2023-04-16T04:03:38.157Z,98.35
2023-04-16T04:04:59.780Z,98.68
2023-04-16T04:06:19.936Z,98.09
2023-04-16T04:07:41.242Z,97.95
2023-04-16T04:09:02.758Z,97.60
2023-04-16T04:10:23.126Z,97.90
2023-04-16T04:11:44.351Z,97.90
2023-04-16T04:13:06.438Z,98.14
2023-04-16T04:14:27.489Z,98.11
2023-04-16T04:15:47.506Z,98.21
2023-04-16T04:17:09.825Z,98.77
2023-04-16T04:18:31.088Z,98.72
2023-04-16T04:20:00.908Z,98.29
2023-04-16T04:21:22.212Z,98.18
2023-04-16T04:22:41.278Z,98.02
2023-04-16T04:24:02.344Z,97.89
2023-04-16T04:25:22.741Z,97.80
2023-04-16T04:26:43.864Z,98.41
2023-04-16T04:28:06.838Z,98.40
2023-04-16T04:29:26.708Z,98.71
2023-04-16T04:30:47.866Z,98.47
2023-04-16T04:32:07.982Z,98.24
2023-04-16T04:33:29.671Z,97.59
2023-04-16T04:34:49.743Z,97.54
2023-04-16T04:36:10.946Z,97.29
2023-04-16T04:37:30.993Z,97.20
2023-04-16T04:38:52.370Z,97.47
2023-04-16T04:40:13.411Z,97.80
2023-04-16T04:41:33.888Z,97.43
2023-04-16T04:42:55.415Z,97.94
2023-04-16T04:44:17.093Z,97.45
2023-04-16T04:45:38.423Z,97.44
2023-04-16T04:46:58.704Z,98.11
2023-04-16T04:48:21.589Z,98.15
2023-04-16T04:49:42.786Z,98.53
2023-04-16T04:51:05.299Z,100.00
2023-04-16T04:52:25.819Z,100.00
2023-04-16T04:53:46.839Z,100.00
2023-04-16T04:55:07.002Z,100.00
2023-04-16T04:56:27.030Z,100.00
2023-04-16T04:57:48.001Z,100.00
2023-04-16T04:59:08.041Z,100.00
2023-04-16T05:00:31.059Z,100.00
2023-04-16T05:01:52.223Z,100.00
2023-04-16T05:03:12.586Z,100.00
2023-04-16T05:04:34.176Z,100.00
2023-04-16T05:05:55.548Z,100.00
2023-04-16T05:07:16.479Z,100.00
2023-04-16T05:08:37.799Z,100.00
2023-04-16T05:09:58.042Z,100.00
2023-04-16T05:11:19.076Z,100.00
2023-04-16T05:12:40.111Z,100.00
2023-04-16T05:14:01.222Z,100.00
2023-04-16T05:15:21.551Z,100.00
2023-04-16T05:16:43.929Z,100.00
2023-04-16T05:18:05.161Z,100.00
2023-04-16T05:19:25.545Z,100.00
2023-04-16T05:20:46.780Z,100.00
2023-04-16T05:22:04.695Z,100.00
2023-04-16T05:23:26.050Z,100.00
2023-04-16T05:24:46.926Z,100.00
2023-04-16T05:26:08.285Z,100.00
2023-04-16T05:27:28.176Z,100.00
2023-04-16T05:28:49.219Z,100.00
2023-04-16T05:30:11.258Z,100.00
2023-04-16T05:31:31.650Z,100.00
2023-04-16T05:32:54.217Z,100.00
2023-04-16T05:34:15.503Z,100.00
2023-04-16T05:35:36.422Z,100.00
2023-04-16T05:36:56.350Z,100.00
2023-04-16T05:38:17.433Z,100.00
2023-04-16T05:39:39.006Z,100.00
2023-04-16T05:40:59.337Z,100.00
2023-04-16T05:42:20.530Z,100.00
2023-04-16T05:43:40.804Z,100.00
2023-04-16T05:45:04.244Z,100.00
2023-04-16T05:46:24.676Z,100.00
2023-04-16T05:47:46.213Z,100.00
2023-04-16T05:49:09.127Z,100.00
2023-04-16T05:50:29.447Z,100.00
2023-04-16T05:51:51.015Z,100.00
2023-04-16T05:53:13.963Z,100.00
2023-04-16T05:54:34.938Z,100.00
2023-04-16T05:55:55.418Z,100.00
2023-04-16T05:57:16.572Z,100.00
2023-04-16T05:58:37.994Z,100.00
2023-04-16T05:59:59.207Z,100.00
2023-04-16T06:01:20.293Z,100.00
2023-04-16T06:02:41.883Z,100.00
2023-04-16T06:04:02.376Z,100.00
2023-04-16T06:05:26.635Z,100.00
2023-04-16T06:06:47.666Z,100.00
2023-04-16T06:08:08.900Z,100.00
2023-04-16T06:09:30.850Z,100.00
2023-04-16T06:10:52.079Z,100.00
2023-04-16T06:12:13.334Z,100.00
2023-04-16T06:13:34.619Z,100.00
2023-04-16T06:14:54.796Z,100.00
2023-04-16T06:16:15.787Z,100.00
2023-04-16T06:17:37.015Z,100.00
2023-04-16T06:18:57.351Z,100.00
2023-04-16T06:20:18.828Z,100.00
2023-04-16T06:21:40.698Z,100.00
2023-04-16T06:23:01.836Z,100.00
2023-04-16T06:24:23.299Z,100.00
2023-04-16T06:25:43.483Z,100.00
2023-04-16T06:27:02.867Z,100.00
2023-04-16T06:28:23.873Z,100.00
2023-04-16T06:29:44.401Z,100.00
2023-04-16T06:31:05.933Z,100.00
2023-04-16T06:32:27.017Z,100.00
2023-04-16T06:33:48.289Z,100.00
2023-04-16T06:35:09.999Z,100.00
2023-04-16T06:36:29.045Z,100.00
2023-04-16T06:37:51.196Z,100.00
2023-04-16T06:39:11.365Z,100.00
2023-04-16T06:40:32.799Z,100.00
2023-04-16T06:41:54.300Z,100.00
2023-04-16T06:43:15.696Z,100.00
2023-04-16T06:44:36.309Z,100.00
2023-04-16T06:45:57.209Z,100.00
2023-04-16T06:47:17.008Z,100.00
2023-04-16T06:48:38.190Z,100.00
2023-04-16T06:49:58.666Z,100.00
2023-04-16T06:51:20.610Z,100.00
2023-04-16T06:52:40.768Z,100.00
2023-04-16T06:54:03.220Z,100.00
2023-04-16T06:55:23.461Z,100.00
2023-04-16T06:56:44.793Z,100.00
2023-04-16T06:58:04.991Z,100.00
2023-04-16T06:59:26.130Z,100.00
2023-04-16T07:00:47.370Z,100.00
2023-04-16T07:02:07.925Z,100.00
2023-04-16T07:03:27.605Z,100.00
2023-04-16T07:04:48.656Z,100.00
2023-04-16T07:06:10.424Z,100.00
2023-04-16T07:07:32.110Z,100.00
2023-04-16T07:08:53.221Z,100.00
2023-04-16T07:10:15.461Z,100.00
2023-04-16T07:11:36.777Z,100.00
2023-04-16T07:12:57.353Z,100.00
2023-04-16T07:14:18.679Z,100.00
2023-04-16T07:15:39.775Z,100.00
2023-04-16T07:17:00.633Z,100.00
2023-04-16T07:18:22.030Z,100.00
2023-04-16T07:19:42.890Z,100.00
2023-04-16T07:21:04.217Z,100.00
2023-04-16T07:22:24.325Z,100.00
2023-04-16T07:23:45.505Z,100.00
2023-04-16T07:25:06.621Z,100.00
2023-04-16T07:26:27.995Z,100.00
2023-04-16T07:27:49.315Z,100.00
2023-04-16T07:29:10.497Z,100.00
2023-04-16T07:30:34.264Z,100.00
2023-04-16T07:31:55.516Z,100.00
2023-04-16T07:33:16.516Z,100.00
2023-04-16T07:34:37.435Z,100.00
2023-04-16T07:35:58.573Z,100.00
2023-04-16T07:37:19.938Z,100.00
2023-04-16T07:38:41.269Z,100.00
2023-04-16T07:40:02.608Z,100.00
2023-04-16T07:41:23.492Z,100.00
2023-04-16T07:42:45.849Z,100.00
2023-04-16T07:44:06.004Z,100.00
2023-04-16T07:45:27.365Z,100.00
2023-04-16T07:46:48.820Z,100.00
2023-04-16T07:48:09.808Z,100.00
2023-04-16T07:49:30.705Z,100.00
2023-04-16T07:50:52.111Z,100.00
2023-04-16T07:52:13.696Z,100.00
2023-04-16T07:53:34.754Z,100.00
2023-04-16T07:54:55.654Z,100.00
2023-04-16T07:56:17.063Z,100.00
2023-04-16T07:57:38.387Z,100.00
2023-04-16T07:59:14.492Z,100.00
2023-04-16T08:00:41.471Z,100.00
2023-04-16T08:02:02.655Z,100.00
2023-04-16T08:03:24.584Z,100.00
2023-04-16T08:04:46.140Z,100.00
2023-04-16T08:06:06.690Z,100.00
2023-04-16T08:07:27.796Z,100.00
2023-04-16T08:08:49.142Z,100.00
2023-04-16T08:10:09.204Z,100.00
2023-04-16T08:11:30.185Z,100.00
2023-04-16T08:12:51.574Z,100.00
2023-04-16T08:14:13.954Z,100.00
2023-04-16T08:15:34.217Z,100.00
2023-04-16T08:16:55.857Z,100.00
2023-04-16T08:18:16.909Z,100.00
2023-04-16T08:19:38.292Z,100.00
2023-04-16T08:20:59.484Z,100.00
2023-04-16T08:22:20.526Z,100.00
2023-04-16T08:23:41.896Z,100.00
2023-04-16T08:25:04.124Z,100.00
2023-04-16T08:26:25.418Z,100.00
2023-04-16T08:27:46.220Z,100.00
2023-04-16T08:29:06.099Z,100.00
2023-04-16T08:30:29.367Z,100.00
2023-04-16T08:31:50.703Z,100.00
2023-04-16T08:33:11.597Z,100.00
2023-04-16T08:34:13.577Z,100.00
2023-04-16T08:35:16.103Z,100.00
2023-04-16T08:36:17.562Z,100.00
2023-04-16T08:37:19.977Z,100.00
2023-04-16T08:38:22.460Z,100.00
2023-04-16T08:39:24.205Z,100.00
2023-04-16T08:40:28.323Z,100.00
2023-04-16T08:41:31.128Z,100.00
2023-04-16T08:42:45.831Z,100.00
2023-04-16T08:43:50.472Z,100.00
2023-04-16T08:45:05.059Z,100.00
2023-04-16T08:46:08.882Z,100.00
2023-04-16T08:47:13.696Z,100.00
2023-04-16T08:48:15.618Z,100.00
2023-04-16T08:49:19.036Z,100.00
2023-04-16T08:50:23.642Z,100.00
2023-04-16T08:51:28.408Z,100.00
2023-04-16T08:52:31.321Z,100.00
2023-04-16T08:53:38.009Z,100.00
2023-04-16T08:54:46.393Z,100.00
2023-04-16T08:56:04.618Z,100.00
2023-04-16T08:57:07.614Z,100.00
2023-04-16T08:58:15.454Z,100.00
2023-04-16T08:59:17.607Z,100.00
2023-04-16T09:00:20.821Z,100.00
2023-04-16T09:01:25.544Z,100.00
2023-04-16T09:02:28.494Z,100.00
2023-04-16T09:03:34.811Z,100.00
2023-04-16T09:04:40.773Z,100.00
2023-04-16T09:05:44.819Z,100.00
2023-04-16T09:06:48.424Z,100.00
2023-04-16T09:07:51.617Z,100.00
2023-04-16T09:08:53.903Z,100.00
2023-04-16T09:09:58.874Z,100.00
2023-04-16T09:11:01.319Z,100.00
2023-04-16T09:12:03.358Z,100.00
2023-04-16T09:13:05.810Z,100.00
2023-04-16T09:14:09.810Z,100.00
2023-04-16T09:15:14.126Z,100.00
2023-04-16T09:16:15.806Z,100.00
2023-04-16T09:17:20.351Z,100.00
2023-04-16T09:18:23.230Z,100.00
2023-04-16T09:19:24.717Z,100.00
2023-04-16T09:20:27.136Z,100.00
2023-04-16T09:21:30.941Z,100.00
2023-04-16T09:22:33.439Z,100.00
2023-04-16T09:23:36.401Z,100.00
2023-04-16T09:24:38.458Z,100.00
2023-04-16T09:25:40.911Z,100.00
2023-04-16T09:26:43.383Z,100.00
2023-04-16T09:27:46.745Z,100.00
2023-04-16T09:28:50.745Z,100.00
2023-04-16T09:29:53.368Z,100.00
2023-04-16T09:31:08.191Z,100.00
2023-04-16T09:32:12.036Z,100.00
2023-04-16T09:33:22.122Z,100.00
2023-04-16T09:34:24.685Z,100.00
2023-04-16T09:35:26.406Z,100.00
2023-04-16T09:36:29.390Z,100.00
2023-04-16T09:37:31.461Z,100.00
2023-04-16T09:38:47.838Z,100.00
2023-04-16T09:39:54.278Z,100.00
2023-04-16T09:41:07.247Z,100.00
2023-04-16T09:42:09.902Z,100.00
2023-04-16T09:43:12.324Z,100.00
2023-04-16T09:44:14.866Z,100.00
2023-04-16T09:45:17.359Z,100.00
2023-04-16T09:46:18.902Z,100.00
2023-04-16T09:47:21.947Z,100.00
2023-04-16T09:48:31.801Z,100.00
2023-04-16T09:49:35.997Z,100.00
2023-04-16T09:50:38.803Z,100.00
2023-04-16T09:51:41.887Z,100.00
2023-04-16T09:52:45.847Z,100.00
2023-04-16T09:53:47.365Z,100.00
2023-04-16T09:54:51.340Z,100.00
2023-04-16T09:55:52.856Z,100.00
2023-04-16T09:56:58.069Z,100.00
2023-04-16T09:58:00.370Z,100.00
2023-04-16T09:59:03.056Z,100.00
2023-04-16T10:00:07.767Z,100.00
2023-04-16T10:01:12.560Z,100.00
2023-04-16T10:02:15.852Z,100.00
2023-04-16T10:03:19.005Z,100.00
2023-04-16T10:04:22.964Z,100.00
2023-04-16T10:05:26.308Z,100.00
2023-04-16T10:06:30.197Z,100.00
2023-04-16T10:07:34.684Z,100.00
2023-04-16T10:08:37.177Z,100.00
2023-04-16T10:09:39.260Z,100.00
2023-04-16T10:10:42.538Z,100.00
2023-04-16T10:11:44.101Z,100.00
2023-04-16T10:12:46.535Z,100.00
2023-04-16T10:13:48.088Z,100.00
2023-04-16T10:14:50.781Z,100.00
2023-04-16T10:15:52.590Z,100.00
2023-04-16T10:16:57.097Z,100.00
2023-04-16T10:18:00.282Z,100.00
2023-04-16T10:19:03.083Z,100.00
2023-04-16T10:20:07.781Z,100.00
2023-04-16T10:21:11.889Z,100.00
2023-04-16T10:22:13.759Z,100.00
2023-04-16T10:23:16.425Z,100.00
2023-04-16T10:24:18.446Z,100.00
2023-04-16T10:25:21.569Z,100.00
2023-04-16T10:26:24.317Z,100.00
2023-04-16T10:27:28.068Z,100.00
2023-04-16T10:28:30.568Z,100.00
2023-04-16T10:29:34.535Z,100.00
2023-04-16T10:30:36.778Z,100.00
2023-04-16T10:31:40.483Z,100.00
2023-04-16T10:32:42.547Z,100.00
2023-04-16T10:33:46.281Z,100.00
2023-04-16T10:34:48.004Z,100.00
2023-04-16T10:36:04.972Z,100.00
2023-04-16T10:37:10.015Z,100.00
2023-04-16T10:38:26.199Z,100.00
2023-04-16T10:39:32.890Z,100.00
2023-04-16T10:40:35.461Z,100.00
2023-04-16T10:41:38.860Z,100.00
2023-04-16T10:42:40.393Z,100.00
2023-04-16T10:43:45.292Z,100.00
2023-04-16T10:44:47.760Z,100.00
2023-04-16T10:45:49.353Z,100.00
2023-04-16T10:46:51.838Z,100.00
2023-04-16T10:47:56.091Z,100.00
2023-04-16T10:49:02.222Z,100.00
2023-04-16T10:50:17.010Z,100.00
2023-04-16T10:51:31.452Z,100.00
2023-04-16T10:52:33.160Z,100.00
2023-04-16T10:53:38.106Z,100.00
2023-04-16T10:54:41.282Z,100.00
2023-04-16T10:55:56.695Z,100.00
2023-04-16T10:57:02.230Z,100.00
2023-04-16T10:58:26.977Z,100.00
2023-04-16T10:59:32.171Z,100.00
2023-04-16T11:00:49.268Z,100.00
2023-04-16T11:01:53.905Z,100.00
2023-04-16T11:02:55.682Z,100.00
2023-04-16T11:04:00.136Z,100.00
2023-04-16T11:05:03.072Z,100.00
2023-04-16T11:06:12.303Z,100.00
2023-04-16T11:07:21.054Z,100.00
2023-04-16T11:08:24.237Z,100.00
2023-04-16T11:09:48.197Z,100.00
2023-04-16T11:10:50.650Z,100.00
2023-04-16T11:11:52.442Z,100.00
2023-04-16T11:12:56.109Z,100.00
2023-04-16T11:13:57.626Z,100.00
2023-04-16T11:15:01.750Z,100.00
2023-04-16T11:16:03.787Z,100.00
2023-04-16T11:17:06.266Z,100.00
2023-04-16T11:18:09.739Z,100.00
2023-04-16T11:19:17.498Z,100.00
2023-04-16T11:20:21.887Z,100.00
2023-04-16T11:21:24.034Z,100.00
2023-04-16T11:22:28.357Z,100.00
2023-04-16T11:23:29.906Z,100.00
2023-04-16T11:24:32.937Z,100.00
2023-04-16T11:25:34.870Z,100.00
2023-04-16T11:26:37.356Z,100.00
2023-04-16T11:27:38.954Z,100.00
2023-04-16T11:28:41.449Z,100.00
2023-04-16T11:29:57.067Z,100.00
2023-04-16T11:30:59.828Z,100.00
2023-04-16T11:32:01.474Z,100.00
2023-04-16T11:33:07.014Z,100.00
2023-04-16T11:34:08.610Z,100.00
2023-04-16T11:35:15.198Z,100.00
2023-04-16T11:36:16.749Z,100.00
2023-04-16T11:37:21.839Z,100.00
2023-04-16T11:38:35.412Z,100.00
2023-04-16T11:39:49.126Z,100.00
2023-04-16T11:40:51.486Z,100.00
2023-04-16T11:41:53.960Z,100.00
2023-04-16T11:42:55.692Z,100.00
2023-04-16T11:43:58.330Z,100.00
2023-04-16T11:45:01.473Z,100.00
2023-04-16T11:46:12.933Z,100.00
2023-04-16T11:47:19.169Z,100.00
2023-04-16T11:48:21.966Z,100.00
2023-04-16T11:49:31.470Z,100.00
2023-04-16T11:50:33.944Z,100.00
2023-04-16T11:51:40.092Z,100.00
2023-04-16T11:52:52.804Z,100.00
2023-04-16T11:53:58.652Z,100.00
2023-04-16T11:55:00.388Z,100.00
2023-04-16T11:56:05.025Z,100.00
2023-04-16T11:57:07.566Z,100.00
2023-04-16T11:58:12.399Z,100.00
2023-04-16T11:59:18.715Z,100.00
2023-04-16T12:00:23.958Z,100.00
2023-04-16T12:01:27.856Z,100.00
2023-04-16T12:02:38.005Z,100.00
2023-04-16T12:03:45.043Z,100.00
2023-04-16T12:04:47.794Z,100.00
2023-04-16T12:05:49.521Z,100.00
2023-04-16T12:07:21.929Z,100.00
2023-04-16T12:08:30.677Z,100.00
2023-04-16T12:09:36.479Z,100.00
2023-04-16T12:10:54.887Z,100.00
2023-04-16T12:11:56.539Z,100.00
2023-04-16T12:13:12.395Z,100.00
2023-04-16T12:14:14.225Z,100.00
2023-04-16T12:15:16.690Z,100.00
2023-04-16T12:16:20.638Z,100.00
2023-04-16T12:17:23.277Z,100.00
2023-04-16T12:18:26.837Z,100.00
2023-04-16T12:19:29.526Z,100.00
2023-04-16T12:20:39.482Z,100.00
2023-04-16T12:21:47.484Z,100.00
2023-04-16T12:22:50.723Z,100.00
2023-04-16T12:23:53.725Z,100.00
2023-04-16T12:25:03.673Z,100.00
2023-04-16T12:26:10.804Z,100.00
2023-04-16T12:27:13.565Z,100.00
2023-04-16T12:28:16.505Z,100.00
2023-04-16T12:29:20.497Z,100.00
2023-04-16T12:30:27.167Z,100.00
2023-04-16T12:31:37.212Z,100.00
2023-04-16T12:32:39.982Z,100.00
2023-04-16T12:33:42.886Z,100.00
2023-04-16T12:34:52.311Z,100.00
2023-04-16T12:35:56.903Z,100.00
2023-04-16T12:37:09.463Z,100.00
2023-04-16T12:38:11.910Z,100.00
2023-04-16T12:39:16.126Z,100.00
2023-04-16T12:40:18.977Z,100.00
2023-04-16T12:41:21.917Z,100.00
2023-04-16T12:42:23.518Z,100.00
2023-04-16T12:43:26.516Z,100.00
2023-04-16T12:44:29.451Z,100.00
2023-04-16T12:45:31.201Z,100.00
2023-04-16T12:46:33.846Z,100.00
2023-04-16T12:47:36.435Z,100.00
2023-04-16T12:48:37.972Z,100.00
2023-04-16T12:49:40.753Z,100.00
2023-04-16T12:50:44.487Z,100.00
2023-04-16T12:51:47.887Z,100.00
2023-04-16T12:52:49.560Z,100.00
2023-04-16T12:53:52.036Z,100.00
2023-04-16T12:54:53.642Z,100.00
2023-04-16T12:56:03.623Z,100.00
2023-04-16T12:57:05.197Z,100.00
2023-04-16T12:58:08.947Z,100.00
2023-04-16T12:59:12.035Z,100.00
2023-04-16T13:00:16.211Z,100.00
2023-04-16T13:01:18.838Z,100.00
2023-04-16T13:02:21.423Z,100.00
2023-04-16T13:03:23.184Z,100.00
2023-04-16T13:04:26.162Z,100.00
2023-04-16T13:05:27.994Z,100.00
2023-04-16T13:06:31.425Z,100.00
2023-04-16T13:07:36.180Z,100.00
2023-04-16T13:08:38.820Z,100.00
2023-04-16T13:09:41.427Z,100.00
2023-04-16T13:10:42.986Z,100.00
2023-04-16T13:11:50.056Z,100.00
2023-04-16T13:12:51.590Z,100.00
2023-04-16T13:13:54.061Z,100.00
2023-04-16T13:14:56.041Z,100.00
2023-04-16T13:15:58.690Z,100.00
2023-04-16T13:17:00.414Z,100.00
2023-04-16T13:18:03.534Z,100.00
2023-04-16T13:19:06.086Z,100.00
2023-04-16T13:20:09.014Z,100.00
2023-04-16T13:21:12.371Z,100.00
2023-04-16T13:22:14.101Z,100.00
2023-04-16T13:23:16.557Z,100.00
2023-04-16T13:24:19.205Z,100.00
2023-04-16T13:25:20.766Z,100.00
2023-04-16T13:26:32.367Z,100.00
2023-04-16T13:27:35.457Z,100.00
2023-04-16T13:28:37.922Z,100.00
2023-04-16T13:29:39.413Z,100.00
2023-04-16T13:30:42.007Z,100.00
2023-04-16T13:31:46.517Z,100.00
2023-04-16T13:32:49.192Z,100.00
2023-04-16T13:33:51.973Z,100.00
2023-04-16T13:34:54.600Z,100.00
2023-04-16T13:35:56.164Z,100.00
2023-04-16T13:36:58.681Z,100.00
2023-04-16T13:38:00.367Z,100.00
2023-04-16T13:39:04.666Z,100.00
2023-04-16T13:40:07.915Z,100.00
2023-04-16T13:41:10.655Z,100.00
2023-04-16T13:42:12.320Z,100.00
2023-04-16T13:43:19.074Z,100.00
2023-04-16T13:44:21.798Z,100.00
2023-04-16T13:45:23.459Z,100.00
2023-04-16T13:46:27.077Z,100.00
2023-04-16T13:47:35.060Z,100.00
2023-04-16T13:48:38.426Z,100.00
2023-04-16T13:49:47.856Z,100.00
2023-04-16T13:50:50.676Z,100.00
2023-04-16T13:51:53.426Z,100.00
2023-04-16T13:52:55.311Z,100.00
2023-04-16T13:53:57.748Z,100.00
2023-04-16T13:55:00.265Z,100.00
2023-04-16T13:56:03.840Z,100.00
2023-04-16T13:57:09.618Z,100.00
2023-04-16T13:58:22.486Z,100.00
2023-04-16T13:59:24.242Z,100.00
2023-04-16T14:00:27.256Z,100.00
2023-04-16T14:01:40.578Z,100.00
2023-04-16T14:02:42.872Z,100.00
2023-04-16T14:03:45.822Z,100.00
2023-04-16T14:04:47.570Z,100.00
2023-04-16T14:05:50.042Z,100.00
2023-04-16T14:06:51.643Z,100.00
2023-04-16T14:07:54.153Z,100.00
2023-04-16T14:08:55.736Z,100.00
2023-04-16T14:10:05.861Z,100.00
2023-04-16T14:11:17.519Z,100.00
2023-04-16T14:12:19.101Z,100.00
2023-04-16T14:15:09.885Z,100.00
2023-04-16T14:16:12.798Z,100.00
2023-04-16T14:17:14.400Z,100.00
2023-04-16T14:18:17.134Z,100.00
2023-04-16T14:19:18.758Z,100.00
2023-04-16T14:20:21.552Z,100.00
2023-04-16T14:21:23.137Z,100.00
2023-04-16T14:22:25.885Z,100.00
2023-04-16T14:23:28.492Z,100.00
2023-04-16T14:24:30.405Z,100.00
2023-04-16T14:25:33.122Z,100.00
2023-04-16T14:26:35.721Z,100.00
2023-04-16T14:27:38.291Z,100.00
2023-04-16T14:28:42.068Z,100.00
2023-04-16T14:29:46.939Z,100.00
2023-04-16T14:30:48.418Z,100.00
2023-04-16T14:31:51.153Z,100.00
2023-04-16T14:32:54.312Z,100.00
2023-04-16T14:33:55.906Z,100.00
2023-04-16T14:35:01.469Z,100.00
2023-04-16T14:36:04.485Z,100.00
2023-04-16T14:37:06.513Z,100.00
2023-04-16T14:38:14.169Z,100.00
2023-04-16T14:39:16.160Z,100.00
2023-04-16T14:40:19.148Z,100.00
2023-04-16T14:41:20.954Z,100.00
2023-04-16T14:42:23.476Z,100.00
2023-04-16T14:43:26.130Z,100.00
2023-04-16T14:44:27.790Z,100.00
2023-04-16T14:45:32.488Z,100.00
2023-04-16T14:46:34.049Z,100.00
2023-04-16T14:47:38.155Z,100.00
2023-04-16T14:48:40.038Z,100.00
2023-04-16T14:49:42.793Z,100.00
2023-04-16T14:50:45.777Z,100.00
2023-04-16T14:51:47.416Z,100.00
2023-04-16T14:52:52.378Z,100.00
2023-04-16T14:53:54.975Z,100.00
2023-04-16T14:55:03.476Z,100.00
2023-04-16T14:56:05.956Z,100.00
2023-04-16T14:57:08.752Z,100.00
2023-04-16T14:58:11.923Z,100.00
2023-04-16T14:59:13.646Z,100.00
2023-04-16T15:00:18.732Z,100.00
2023-04-16T15:01:22.820Z,100.00
2023-04-16T15:02:26.122Z,100.00
2023-04-16T15:03:28.134Z,100.00
2023-04-16T15:04:31.524Z,100.00
2023-04-16T15:05:33.444Z,100.00
2023-04-16T15:06:36.502Z,100.00
2023-04-16T15:07:39.070Z,100.00
2023-04-16T15:08:40.767Z,100.00
2023-04-16T15:09:43.350Z,100.00
2023-04-16T15:10:46.085Z,100.00
2023-04-16T15:11:47.556Z,100.00
2023-04-16T15:12:52.636Z,100.00
2023-04-16T15:13:54.522Z,100.00
2023-04-16T15:15:03.066Z,100.00
2023-04-16T15:16:05.411Z,100.00
2023-04-16T15:17:09.301Z,100.00
2023-04-16T15:18:14.562Z,100.00